Recently we have seen a lot of codes used to unlock our products being offered for discounted prices. Almost all of them are bought using stolen credit cards. These codes will all be blocked by our systems and you will have to try to get your money back from the seller, we are unable to assist in these matters. Do be very careful when you see a deal that is almost too good to be true, it probably is too good to be true.

Jump to content
maxro

Overflying 6000 after EGLL

Recommended Posts

Dear Forum,

 

I was flying out of EGLL, when I noticed the A321 (G-EUXG) did not hold at 6000, how it should according to the SID. The cruise level was inputted as FL310. 

 

Flightplan: N0465F310 DET2G DET UL6 DVR UL9 KONAN UL607 SPI UT180 PESOV T180 UNOKO UNOK2R (EDDF)

 

Metar: EGLL 171620Z AUTO 18013KT 140V240 9999 NCD 23/09 Q1011 NOSIG

 

2018-09-17_18-38-00.png

Share this post


Link to post

Just checked it, is a known bug and being worked on it.

Workaround (also done in RL): dial in the alt in the FCU, when it is an AT constraint

Share this post


Link to post

Ok thank you! I just thought the ALT constraints would be held by the plane. 

Share this post


Link to post

Create an account or sign in to comment

You need to be a member in order to leave a comment

Create an account

Sign up for a new account in our community. It's easy!

Register a new account

Sign in

Already have an account? Sign in here.

Sign In Now

×
×
  • Create New...